createdAt,value
2019-04-06T00:01:55.137Z,36.07
2019-04-06T00:04:00.749Z,34.47
2019-04-06T00:06:06.025Z,33.20
2019-04-06T00:08:11.223Z,33.27
2019-04-06T00:10:16.994Z,36.17
2019-04-06T00:12:22.247Z,32.27
2019-04-06T00:14:27.264Z,35.20
2019-04-06T00:16:32.983Z,32.23
2019-04-06T00:18:37.965Z,34.90
2019-04-06T00:20:43.112Z,32.83
2019-04-06T00:22:48.215Z,34.67
2019-04-06T00:24:53.334Z,34.70
2019-04-06T00:27:02.755Z,32.70
2019-04-06T00:29:08.015Z,35.00
2019-04-06T00:31:35.276Z,33.90
2019-04-06T00:33:40.448Z,35.10
2019-04-06T00:35:45.922Z,31.60
2019-04-06T00:37:51.009Z,32.73
2019-04-06T00:39:56.369Z,35.10
2019-04-06T00:42:01.563Z,34.57
2019-04-06T00:44:06.704Z,34.97
2019-04-06T00:46:11.877Z,35.23
2019-04-06T00:48:16.870Z,34.33
2019-04-06T00:50:22.049Z,34.50
2019-04-06T00:52:27.579Z,33.27
2019-04-06T00:54:32.611Z,34.50
2019-04-06T00:56:38.025Z,34.90
2019-04-06T00:58:43.468Z,35.10
2019-04-06T01:00:48.639Z,33.40
2019-04-06T01:02:54.713Z,34.27
2019-04-06T01:05:00.007Z,34.77
2019-04-06T01:07:05.342Z,35.83
2019-04-06T01:09:12.332Z,36.17
2019-04-06T01:11:17.712Z,35.67
2019-04-06T01:13:22.880Z,35.70
2019-04-06T01:15:28.127Z,33.50
2019-04-06T01:17:33.286Z,34.17
2019-04-06T01:19:38.479Z,37.20
2019-04-06T01:21:43.842Z,35.37
2019-04-06T01:23:52.653Z,35.13
2019-04-06T01:26:06.712Z,36.77
2019-04-06T01:28:05.429Z,36.57
2019-04-06T01:30:10.903Z,35.13
2019-04-06T01:32:16.416Z,36.10
2019-04-06T01:34:22.237Z,34.70
2019-04-06T01:36:27.940Z,36.63
2019-04-06T01:38:33.413Z,35.60
2019-04-06T01:40:38.529Z,35.57
2019-04-06T01:42:43.711Z,36.57
2019-04-06T01:44:48.897Z,36.87
2019-04-06T01:46:54.035Z,37.60
2019-04-06T01:48:59.297Z,35.23
2019-04-06T01:51:04.525Z,34.87
2019-04-06T01:53:09.423Z,34.43
2019-04-06T01:55:14.662Z,37.03
2019-04-06T01:57:20.181Z,37.00
2019-04-06T01:59:25.258Z,36.20
2019-04-06T02:01:38.183Z,36.87
2019-04-06T02:03:43.318Z,36.63
2019-04-06T02:05:48.709Z,35.70
2019-04-06T02:07:54.115Z,37.83
2019-04-06T02:09:59.314Z,38.50
2019-04-06T02:12:04.943Z,37.73
2019-04-06T02:14:10.085Z,39.40
2019-04-06T02:16:15.208Z,39.00
2019-04-06T02:18:20.352Z,37.33
2019-04-06T02:20:25.355Z,36.23
2019-04-06T02:22:30.522Z,36.97
2019-04-06T02:24:36.035Z,39.10
2019-04-06T02:26:41.495Z,35.53
2019-04-06T02:28:47.146Z,36.40
2019-04-06T02:31:03.315Z,37.40
2019-04-06T02:33:21.977Z,36.50
2019-04-06T02:35:51.075Z,38.87
2019-04-06T02:38:15.435Z,37.90
2019-04-06T02:40:36.353Z,37.50
2019-04-06T02:42:59.221Z,37.03
2019-04-06T02:45:04.440Z,39.10
2019-04-06T02:47:09.796Z,38.30
2019-04-06T02:49:14.833Z,39.23
2019-04-06T02:51:20.034Z,38.77
2019-04-06T02:53:25.369Z,39.37
2019-04-06T02:55:30.926Z,39.03
2019-04-06T02:57:36.181Z,40.00
2019-04-06T02:59:41.727Z,38.90
2019-04-06T03:01:46.896Z,41.47
2019-04-06T03:03:52.387Z,40.70
2019-04-06T03:05:57.720Z,38.97
2019-04-06T03:08:02.803Z,39.83
2019-04-06T03:10:08.205Z,40.60
2019-04-06T03:12:13.303Z,39.10
2019-04-06T03:14:18.826Z,41.00
2019-04-06T03:16:24.055Z,40.43
2019-04-06T03:18:29.483Z,39.00
2019-04-06T03:20:34.500Z,41.73
2019-04-06T03:22:39.608Z,41.20
2019-04-06T03:24:44.760Z,38.30
2019-04-06T03:27:00.644Z,38.10
2019-04-06T03:28:58.021Z,41.87
2019-04-06T03:31:03.573Z,38.07
2019-04-06T03:33:09.233Z,38.90
2019-04-06T03:35:14.598Z,38.53
2019-04-06T03:37:19.649Z,38.40
2019-04-06T03:39:24.908Z,40.97
2019-04-06T03:41:30.094Z,38.93
2019-04-06T03:43:35.423Z,41.23
2019-04-06T03:45:40.537Z,40.60
2019-04-06T03:47:45.540Z,40.40
2019-04-06T03:49:51.511Z,42.07
2019-04-06T03:51:56.556Z,40.03
2019-04-06T03:54:01.561Z,41.13
2019-04-06T03:56:06.724Z,41.20
2019-04-06T03:58:11.870Z,40.10
2019-04-06T04:00:17.421Z,38.53
2019-04-06T04:02:22.513Z,40.90
2019-04-06T04:04:27.555Z,41.00
2019-04-06T04:06:32.814Z,37.23
2019-04-06T04:08:38.057Z,40.70
2019-04-06T04:10:43.507Z,39.70
2019-04-06T04:12:48.579Z,37.93
2019-04-06T04:14:53.940Z,39.70
2019-04-06T04:16:59.160Z,40.47
2019-04-06T04:19:04.402Z,41.70
2019-04-06T04:21:09.420Z,38.67
2019-04-06T04:23:14.498Z,37.50
2019-04-06T04:25:20.350Z,36.80
2019-04-06T04:27:29.361Z,37.57
2019-04-06T04:29:32.435Z,39.13
2019-04-06T04:31:37.955Z,38.70
2019-04-06T04:33:43.027Z,37.73
2019-04-06T04:35:48.497Z,37.50
2019-04-06T04:37:53.614Z,37.90
2019-04-06T04:39:58.699Z,37.77
2019-04-06T04:42:03.710Z,38.10
2019-04-06T04:44:08.928Z,37.57
2019-04-06T04:46:14.072Z,35.83
2019-04-06T04:48:19.184Z,39.03
2019-04-06T04:50:24.365Z,40.63
2019-04-06T04:52:29.403Z,36.30
2019-04-06T04:54:34.744Z,38.77
2019-04-06T04:56:40.071Z,37.27
2019-04-06T04:58:44.945Z,37.60
2019-04-06T05:00:50.107Z,38.60
2019-04-06T05:02:55.246Z,36.17
2019-04-06T05:05:00.251Z,36.67
2019-04-06T05:07:05.447Z,37.20
2019-04-06T05:09:10.461Z,38.20
2019-04-06T05:11:15.555Z,38.47
2019-04-06T05:13:21.224Z,38.43
2019-04-06T05:16:22.441Z,36.90
2019-04-06T05:18:27.562Z,36.07
2019-04-06T05:20:32.777Z,36.17
2019-04-06T05:22:37.768Z,37.30
2019-04-06T05:24:43.148Z,36.23
2019-04-06T05:26:48.937Z,35.17
2019-04-06T05:28:55.258Z,34.73
2019-04-06T05:31:01.547Z,35.27
2019-04-06T05:33:06.579Z,35.67
2019-04-06T05:35:12.023Z,37.60
2019-04-06T05:37:20.565Z,34.87
2019-04-06T05:39:25.988Z,33.10
2019-04-06T05:41:31.120Z,34.40
2019-04-06T05:43:36.434Z,35.13
2019-04-06T05:45:41.726Z,32.90
2019-04-06T05:47:46.924Z,34.10
2019-04-06T05:49:51.903Z,33.20
2019-04-06T05:51:57.028Z,32.50
2019-04-06T05:54:02.540Z,33.70
2019-04-06T05:56:07.905Z,31.60
2019-04-06T05:58:13.259Z,32.27
2019-04-06T06:00:18.477Z,32.37
2019-04-06T06:02:23.577Z,31.70
2019-04-06T06:04:28.659Z,31.13
2019-04-06T06:06:34.020Z,34.20
2019-04-06T06:08:39.217Z,30.97
2019-04-06T06:10:44.565Z,32.53
2019-04-06T06:12:49.978Z,31.37
2019-04-06T06:14:55.275Z,30.40
2019-04-06T06:17:00.238Z,32.40
2019-04-06T06:19:06.280Z,32.40
2019-04-06T06:21:11.591Z,31.70
2019-04-06T06:23:19.934Z,31.90
2019-04-06T06:25:25.091Z,32.07
2019-04-06T06:27:30.542Z,31.60
2019-04-06T06:29:35.523Z,31.00
2019-04-06T06:31:40.615Z,29.77
2019-04-06T06:33:46.016Z,29.80
2019-04-06T06:35:51.908Z,28.97
2019-04-06T06:37:56.930Z,29.40
2019-04-06T06:40:06.844Z,28.80
2019-04-06T06:42:12.346Z,31.07
2019-04-06T06:44:17.522Z,30.73
2019-04-06T06:46:23.795Z,31.23
2019-04-06T06:48:29.279Z,29.47
2019-04-06T06:50:34.767Z,29.30
2019-04-06T06:52:40.173Z,27.80
2019-04-06T06:54:45.499Z,30.10
2019-04-06T06:56:51.783Z,28.77
2019-04-06T06:58:56.848Z,28.23
2019-04-06T07:01:03.295Z,28.63
2019-04-06T07:03:08.784Z,26.60
2019-04-06T07:05:16.847Z,29.00
2019-04-06T07:07:22.072Z,26.30
2019-04-06T07:09:27.143Z,27.80
2019-04-06T07:11:32.283Z,27.13
2019-04-06T07:13:37.557Z,25.80
2019-04-06T07:15:43.378Z,26.87
2019-04-06T07:17:48.907Z,24.20
2019-04-06T07:19:54.106Z,24.23
2019-04-06T07:21:59.524Z,24.20
2019-04-06T07:24:05.158Z,24.27
2019-04-06T07:26:13.569Z,25.33
2019-04-06T07:28:18.855Z,24.47
2019-04-06T07:30:24.282Z,23.57
2019-04-06T07:32:29.667Z,24.57
2019-04-06T07:34:34.979Z,23.03
2019-04-06T07:36:42.739Z,24.13
2019-04-06T07:38:48.108Z,23.70
2019-04-06T07:40:53.195Z,24.40
2019-04-06T07:42:58.803Z,23.77
2019-04-06T07:45:04.522Z,24.50
2019-04-06T07:47:09.978Z,23.37
2019-04-06T07:49:15.443Z,23.53
2019-04-06T07:51:20.473Z,23.97
2019-04-06T07:53:25.622Z,24.77
2019-04-06T07:55:30.767Z,24.37
2019-04-06T07:57:36.050Z,23.43
2019-04-06T07:59:41.214Z,25.20
2019-04-06T08:01:48.368Z,25.87
2019-04-06T08:03:53.222Z,25.17
2019-04-06T08:05:58.686Z,24.20
2019-04-06T08:08:03.826Z,24.60
2019-04-06T08:10:09.663Z,24.97
2019-04-06T08:12:14.577Z,24.07
2019-04-06T08:14:19.705Z,26.40
2019-04-06T08:16:25.265Z,25.50
2019-04-06T08:18:30.642Z,23.60
2019-04-06T08:20:36.198Z,24.63
2019-04-06T08:22:41.367Z,24.50
2019-04-06T08:24:46.518Z,24.97
2019-04-06T08:26:51.713Z,23.00
2019-04-06T08:29:01.870Z,25.93
2019-04-06T08:31:04.260Z,26.30
2019-04-06T08:33:10.479Z,23.80
2019-04-06T08:35:24.822Z,24.17
2019-04-06T08:37:22.753Z,23.83
2019-04-06T08:39:27.975Z,24.53
2019-04-06T08:41:33.159Z,23.90
2019-04-06T08:43:38.245Z,24.30
2019-04-06T08:45:43.371Z,23.70
2019-04-06T08:47:48.790Z,22.53
2019-04-06T08:49:54.325Z,23.77
2019-04-06T08:51:59.519Z,23.47
2019-04-06T08:54:04.832Z,23.20
2019-04-06T08:56:10.190Z,22.50
2019-04-06T08:58:15.265Z,20.97
2019-04-06T09:00:21.149Z,21.53
2019-04-06T09:02:28.444Z,21.90
2019-04-06T09:04:35.984Z,19.97
2019-04-06T09:06:41.093Z,22.15
2019-04-06T09:08:46.546Z,20.87
2019-04-06T09:10:51.661Z,21.40
2019-04-06T09:12:56.898Z,21.73
2019-04-06T09:15:02.289Z,21.90
2019-04-06T09:17:07.451Z,21.00
2019-04-06T09:19:12.637Z,22.20
2019-04-06T09:21:17.929Z,22.60
2019-04-06T09:23:23.366Z,22.63
2019-04-06T09:25:28.627Z,22.50
2019-04-06T09:27:33.641Z,22.90
2019-04-06T09:29:38.863Z,21.33
2019-04-06T09:31:44.153Z,21.30
2019-04-06T09:33:49.358Z,21.03
2019-04-06T09:35:54.510Z,20.60
2019-04-06T09:37:59.885Z,20.30
2019-04-06T09:40:05.206Z,18.97
2019-04-06T09:42:10.541Z,19.07
2019-04-06T09:44:24.017Z,20.30
2019-04-06T09:46:43.666Z,19.10
2019-04-06T09:48:57.196Z,18.27
2019-04-06T09:51:27.622Z,18.50
2019-04-06T09:53:49.366Z,17.17
2019-04-06T09:56:16.296Z,18.20
2019-04-06T09:58:55.624Z,19.80
2019-04-06T10:01:22.582Z,19.40
2019-04-06T10:03:41.117Z,20.50
2019-04-06T10:05:59.977Z,20.17
2019-04-06T10:08:42.183Z,20.72
2019-04-06T10:11:05.031Z,21.57
2019-04-06T10:13:20.096Z,21.33
2019-04-06T10:15:35.060Z,21.55
2019-04-06T10:17:52.889Z,21.02
2019-04-06T10:20:32.226Z,22.00
2019-04-06T10:23:08.385Z,23.10
2019-04-06T10:25:28.987Z,24.07
2019-04-06T10:27:45.695Z,25.23
2019-04-06T10:30:08.861Z,25.90
2019-04-06T10:32:31.801Z,26.70
2019-04-06T10:34:54.446Z,26.17
2019-04-06T10:37:36.604Z,26.17
2019-04-06T10:39:46.239Z,25.40
2019-04-06T10:42:10.414Z,24.20
2019-04-06T10:44:37.816Z,24.20
2019-04-06T10:47:10.806Z,25.20
2019-04-06T10:49:24.631Z,27.30
2019-04-06T10:51:40.242Z,27.20
2019-04-06T10:53:58.770Z,26.37
2019-04-06T10:56:24.237Z,26.77
2019-04-06T10:58:43.675Z,26.10
2019-04-06T11:01:07.933Z,25.13
2019-04-06T11:03:20.105Z,27.10
2019-04-06T11:05:41.344Z,25.70
2019-04-06T11:07:53.956Z,28.07
2019-04-06T11:10:16.907Z,27.30
2019-04-06T11:12:47.934Z,28.70
2019-04-06T11:15:11.000Z,28.23
2019-04-06T11:17:54.009Z,27.13
2019-04-06T11:20:17.390Z,26.47
2019-04-06T11:22:40.271Z,28.17
2019-04-06T11:25:13.905Z,27.20
2019-04-06T11:27:56.240Z,26.50
2019-04-06T11:30:20.421Z,27.33
2019-04-06T11:32:44.502Z,26.50
2019-04-06T11:35:11.750Z,27.13
2019-04-06T11:37:25.170Z,27.37
2019-04-06T11:39:55.401Z,27.00
2019-04-06T11:42:22.413Z,26.57
2019-04-06T11:44:51.834Z,27.83
2019-04-06T11:47:10.398Z,27.90
2019-04-06T11:49:37.552Z,28.67
2019-04-06T11:52:10.744Z,25.60
2019-04-06T11:54:26.628Z,26.00
2019-04-06T11:56:45.893Z,27.80
2019-04-06T11:59:07.063Z,28.70
2019-04-06T12:01:36.948Z,27.27
2019-04-06T12:03:53.635Z,25.47
2019-04-06T12:06:09.611Z,27.00
2019-04-06T12:08:31.544Z,26.80
2019-04-06T12:10:54.388Z,28.67
2019-04-06T12:13:17.234Z,25.20
2019-04-06T12:15:41.420Z,26.00
2019-04-06T12:17:56.584Z,26.57
2019-04-06T12:20:15.340Z,25.70
2019-04-06T12:22:43.660Z,25.40
2019-04-06T12:25:13.987Z,25.17
2019-04-06T12:27:36.477Z,24.73
2019-04-06T12:29:57.698Z,25.23
2019-04-06T12:32:21.874Z,26.40
2019-04-06T12:34:46.463Z,25.40
2019-04-06T12:37:10.744Z,24.97
2019-04-06T12:39:29.588Z,25.60
2019-04-06T12:41:57.039Z,24.30
2019-04-06T12:44:19.866Z,26.17
2019-04-06T12:46:34.778Z,26.17
2019-04-06T12:48:52.513Z,24.93
2019-04-06T12:51:15.449Z,25.80
2019-04-06T12:53:31.702Z,26.13
2019-04-06T12:56:02.354Z,26.13
2019-04-06T12:58:23.736Z,25.60
2019-04-06T13:00:52.461Z,25.80
2019-04-06T13:03:17.991Z,25.27
2019-04-06T13:05:45.810Z,25.03
2019-04-06T13:08:08.301Z,25.00
2019-04-06T13:10:34.814Z,23.53
2019-04-06T13:13:13.759Z,26.30
2019-04-06T13:15:27.601Z,24.50
2019-04-06T13:17:48.218Z,25.63
2019-04-06T13:20:15.171Z,26.80
2019-04-06T13:22:51.709Z,25.43
2019-04-06T13:25:24.801Z,24.87
2019-04-06T13:27:41.875Z,25.70
2019-04-06T13:30:09.143Z,24.93
2019-04-06T13:32:45.683Z,25.10
2019-04-06T13:35:12.566Z,24.00
2019-04-06T13:37:41.245Z,25.13
2019-04-06T13:40:11.517Z,26.70
2019-04-06T13:42:44.985Z,26.27
2019-04-06T13:45:08.018Z,25.37
2019-04-06T13:47:29.710Z,26.33
2019-04-06T13:49:48.824Z,27.30
2019-04-06T13:52:05.175Z,25.57
2019-04-06T13:54:41.588Z,25.67
2019-04-06T13:57:04.027Z,30.20
2019-04-06T13:59:40.198Z,26.10
2019-04-06T14:01:55.460Z,24.80
2019-04-06T14:04:18.004Z,24.80
2019-04-06T14:06:39.099Z,26.53
2019-04-06T14:09:02.138Z,24.87
2019-04-06T14:11:45.139Z,24.23
2019-04-06T14:14:10.095Z,26.53
2019-04-06T14:16:32.740Z,26.30
2019-04-06T14:19:09.012Z,30.27
2019-04-06T14:21:35.848Z,30.50
2019-04-06T14:23:49.687Z,29.30
2019-04-06T14:26:12.536Z,32.17
2019-04-06T14:28:27.806Z,30.40
2019-04-06T14:30:39.537Z,29.40
2019-04-06T14:33:16.375Z,30.30
2019-04-06T14:35:30.445Z,30.50
2019-04-06T14:37:46.505Z,29.57
2019-04-06T14:40:09.457Z,28.90
2019-04-06T14:42:28.484Z,28.80
2019-04-06T14:44:50.419Z,27.60
2019-04-06T14:47:13.794Z,27.40
2019-04-06T14:49:37.102Z,26.57
2019-04-06T14:52:10.209Z,27.17
2019-04-06T14:54:33.897Z,33.93
2019-04-06T14:57:00.966Z,29.10
2019-04-06T14:59:27.914Z,28.00
2019-04-06T15:01:57.877Z,26.93
2019-04-06T15:04:28.985Z,27.97
2019-04-06T15:06:53.158Z,27.90
2019-04-06T15:09:13.327Z,28.00
2019-04-06T15:11:36.082Z,28.93
2019-04-06T15:14:05.484Z,26.93
2019-04-06T15:16:33.781Z,27.57
2019-04-06T15:19:06.973Z,27.30
2019-04-06T15:21:40.203Z,28.33
2019-04-06T15:24:04.247Z,27.30
2019-04-06T15:26:24.891Z,29.10
2019-04-06T15:28:45.130Z,30.00
2019-04-06T15:31:12.465Z,28.30
2019-04-06T15:33:36.463Z,30.20
2019-04-06T15:36:03.580Z,33.13
2019-04-06T15:38:22.663Z,28.90
2019-04-06T15:40:37.305Z,30.97
2019-04-06T15:42:58.236Z,30.57
2019-04-06T15:45:19.341Z,29.40
2019-04-06T15:47:46.721Z,27.27
2019-04-06T15:50:19.903Z,28.40
2019-04-06T15:52:43.862Z,29.87
2019-04-06T15:55:06.617Z,29.90
2019-04-06T15:57:42.466Z,29.37
2019-04-06T15:59:56.874Z,28.13
2019-04-06T16:02:21.409Z,28.37
2019-04-06T16:04:42.819Z,26.30
2019-04-06T16:07:01.369Z,38.67
2019-04-06T16:09:24.012Z,27.97
2019-04-06T16:11:51.367Z,26.97
2019-04-06T16:14:13.911Z,28.53
2019-04-06T16:16:38.153Z,26.10
2019-04-06T16:19:08.417Z,25.13
2019-04-06T16:21:41.406Z,28.10
2019-04-06T16:24:08.861Z,26.33
2019-04-06T16:26:21.296Z,24.73
2019-04-06T16:28:47.725Z,26.77
2019-04-06T16:31:23.405Z,23.70
2019-04-06T16:33:35.035Z,23.73
2019-04-06T16:36:11.873Z,24.10
2019-04-06T16:38:51.761Z,23.90
2019-04-06T16:41:32.046Z,30.00
2019-04-06T16:43:59.375Z,22.13
2019-04-06T16:46:15.148Z,31.90
2019-04-06T16:48:47.920Z,34.63
2019-04-06T16:51:15.105Z,35.13
2019-04-06T16:53:44.996Z,33.83
2019-04-06T16:56:02.579Z,33.40
2019-04-06T16:58:29.527Z,31.20
2019-04-06T17:00:41.976Z,29.70
2019-04-06T17:02:53.304Z,31.70
2019-04-06T17:05:16.934Z,33.33
2019-04-06T17:07:36.823Z,32.17
2019-04-06T17:10:12.731Z,30.00
2019-04-06T17:12:27.731Z,29.30
2019-04-06T17:14:51.675Z,23.80
2019-04-06T17:17:25.775Z,22.03
2019-04-06T17:19:55.499Z,21.20
2019-04-06T17:22:07.687Z,21.00
2019-04-06T17:24:31.534Z,21.10
2019-04-06T17:26:58.483Z,20.57
2019-04-06T17:29:16.479Z,21.27
2019-04-06T17:31:31.152Z,20.07
2019-04-06T17:33:54.861Z,20.17
2019-04-06T17:36:09.116Z,19.70
2019-04-06T17:38:25.413Z,20.13
2019-04-06T17:40:40.074Z,19.63
2019-04-06T17:43:05.725Z,20.97
2019-04-06T17:45:32.801Z,21.20
2019-04-06T17:47:51.177Z,19.77
2019-04-06T17:50:07.631Z,21.83
2019-04-06T17:52:34.873Z,19.87
2019-04-06T17:55:07.884Z,20.50
2019-04-06T17:57:26.739Z,19.17
2019-04-06T17:59:59.735Z,20.00
2019-04-06T18:02:23.478Z,21.20
2019-04-06T18:04:50.061Z,20.83
2019-04-06T18:07:13.996Z,20.90
2019-04-06T18:09:32.136Z,20.97
2019-04-06T18:11:47.476Z,22.07
2019-04-06T18:13:53.146Z,20.53
2019-04-06T18:15:57.970Z,20.13
2019-04-06T18:18:03.237Z,21.67
2019-04-06T18:20:08.660Z,21.70
2019-04-06T18:22:13.524Z,21.83
2019-04-06T18:24:18.381Z,21.40
2019-04-06T18:26:23.158Z,22.77
2019-04-06T18:28:28.058Z,23.77
2019-04-06T18:30:32.957Z,23.37
2019-04-06T18:32:57.847Z,27.63
2019-04-06T18:34:54.757Z,27.90
2019-04-06T18:37:22.460Z,28.87
2019-04-06T18:39:27.771Z,26.57
2019-04-06T18:41:33.574Z,27.17
2019-04-06T18:43:39.843Z,26.40
2019-04-06T18:45:45.213Z,27.40
2019-04-06T18:47:50.123Z,26.77
2019-04-06T18:49:55.644Z,26.67
2019-04-06T18:52:01.786Z,25.97
2019-04-06T18:54:08.375Z,25.80
2019-04-06T18:56:13.954Z,26.00
2019-04-06T18:58:18.737Z,25.97
2019-04-06T19:00:24.718Z,24.37
2019-04-06T19:02:29.489Z,25.87
2019-04-06T19:04:34.298Z,25.10
2019-04-06T19:06:39.546Z,24.73
2019-04-06T19:08:44.604Z,28.13
2019-04-06T19:10:49.936Z,25.27
2019-04-06T19:12:54.878Z,25.80
2019-04-06T19:15:00.134Z,24.70
2019-04-06T19:17:05.046Z,25.20
2019-04-06T19:19:09.861Z,25.43
2019-04-06T19:21:14.946Z,26.10
2019-04-06T19:23:20.247Z,24.37
2019-04-06T19:25:25.075Z,26.27
2019-04-06T19:27:30.334Z,26.17
2019-04-06T19:29:35.515Z,25.57
2019-04-06T19:31:41.001Z,25.57
2019-04-06T19:33:46.462Z,27.93
2019-04-06T19:35:52.045Z,27.57
2019-04-06T19:37:57.457Z,26.57
2019-04-06T19:40:03.020Z,27.50
2019-04-06T19:42:08.332Z,29.53
2019-04-06T19:44:13.488Z,30.97
2019-04-06T19:46:19.020Z,27.73
2019-04-06T19:48:24.526Z,29.80
2019-04-06T19:50:30.499Z,28.53
2019-04-06T19:52:35.890Z,30.30
2019-04-06T19:54:41.439Z,30.63
2019-04-06T19:56:46.753Z,30.97
2019-04-06T19:58:52.425Z,29.83
2019-04-06T20:00:58.667Z,30.83
2019-04-06T20:03:04.296Z,32.10
2019-04-06T20:05:09.720Z,29.03
2019-04-06T20:07:15.520Z,30.50
2019-04-06T20:09:20.773Z,29.57
2019-04-06T20:11:26.524Z,31.17
2019-04-06T20:13:32.115Z,30.20
2019-04-06T20:15:37.145Z,29.90
2019-04-06T20:17:43.509Z,31.87
2019-04-06T20:19:48.587Z,34.93
2019-04-06T20:21:53.881Z,36.60
2019-04-06T20:23:59.113Z,35.40
2019-04-06T20:26:04.742Z,37.40
2019-04-06T20:28:10.226Z,40.20
2019-04-06T20:30:16.131Z,37.43
2019-04-06T20:32:21.363Z,38.03
2019-04-06T20:34:27.083Z,39.20
2019-04-06T20:36:32.236Z,37.80
2019-04-06T20:38:37.931Z,36.53
2019-04-06T20:40:43.478Z,41.00
2019-04-06T20:42:48.788Z,41.60
2019-04-06T20:44:54.073Z,41.20
2019-04-06T20:46:59.474Z,41.80
2019-04-06T20:49:04.610Z,40.30
2019-04-06T20:51:10.531Z,43.50
2019-04-06T20:53:15.770Z,41.17
2019-04-06T20:55:20.923Z,42.00
2019-04-06T20:57:26.378Z,43.17
2019-04-06T20:59:31.633Z,41.63
2019-04-06T21:01:37.162Z,43.10
2019-04-06T21:03:43.636Z,44.97
2019-04-06T21:05:49.361Z,50.17
2019-04-06T21:07:55.378Z,51.10
2019-04-06T21:10:00.668Z,51.07
2019-04-06T21:12:05.604Z,49.17
2019-04-06T21:14:11.126Z,50.47
2019-04-06T21:16:16.867Z,47.67
2019-04-06T21:18:22.198Z,49.50
2019-04-06T21:20:27.643Z,48.30
2019-04-06T21:22:32.916Z,47.93
2019-04-06T21:24:38.126Z,47.70
2019-04-06T21:26:44.304Z,48.20
2019-04-06T21:28:49.682Z,48.40
2019-04-06T21:30:55.503Z,48.93
2019-04-06T21:33:01.140Z,49.07
2019-04-06T21:35:08.252Z,49.23
2019-04-06T21:37:13.452Z,50.50
2019-04-06T21:39:18.682Z,49.13
2019-04-06T21:41:24.594Z,51.70
2019-04-06T21:43:30.353Z,48.67
2019-04-06T21:45:36.608Z,48.37
2019-04-06T21:47:41.962Z,50.13
2019-04-06T21:49:47.862Z,53.43
2019-04-06T21:51:54.201Z,51.90
2019-04-06T21:54:01.366Z,50.27
2019-04-06T21:56:08.276Z,48.70
2019-04-06T21:58:14.168Z,52.20
2019-04-06T22:00:32.615Z,50.20
2019-04-06T22:02:39.360Z,52.10
2019-04-06T22:04:45.229Z,51.63
2019-04-06T22:06:50.829Z,55.60
2019-04-06T22:08:56.640Z,54.30
2019-04-06T22:11:02.695Z,53.40
2019-04-06T22:13:08.384Z,52.60
2019-04-06T22:15:15.509Z,53.90
2019-04-06T22:17:21.337Z,54.97
2019-04-06T22:19:26.900Z,54.10
2019-04-06T22:21:32.116Z,54.67
2019-04-06T22:23:42.185Z,53.90
2019-04-06T22:25:43.996Z,54.50
2019-04-06T22:27:49.290Z,54.97
2019-04-06T22:29:55.504Z,56.37
2019-04-06T22:32:00.683Z,54.03
2019-04-06T22:34:06.125Z,55.30
2019-04-06T22:36:12.349Z,52.43
2019-04-06T22:38:17.439Z,54.90
2019-04-06T22:40:22.608Z,54.67
2019-04-06T22:42:28.208Z,53.20
2019-04-06T22:44:33.535Z,56.53
2019-04-06T22:46:38.711Z,54.67
2019-04-06T22:48:44.359Z,53.87
2019-04-06T22:50:49.574Z,54.40
2019-04-06T22:52:54.825Z,54.60
2019-04-06T22:54:59.810Z,53.87
2019-04-06T22:57:05.366Z,56.90
2019-04-06T22:59:11.185Z,55.70
2019-04-06T23:01:17.418Z,53.40
2019-04-06T23:03:33.287Z,57.27
2019-04-06T23:05:42.906Z,56.03
2019-04-06T23:07:48.513Z,54.37
2019-04-06T23:09:54.143Z,55.60
2019-04-06T23:11:59.543Z,54.03
2019-04-06T23:14:04.863Z,54.80
2019-04-06T23:16:10.323Z,55.83
2019-04-06T23:18:16.177Z,54.90
2019-04-06T23:20:21.768Z,53.13
2019-04-06T23:22:28.623Z,56.67
2019-04-06T23:24:34.476Z,53.70
2019-04-06T23:26:39.947Z,53.60
2019-04-06T23:28:45.648Z,54.50
2019-04-06T23:30:50.776Z,53.27
2019-04-06T23:32:56.043Z,52.53
2019-04-06T23:35:02.328Z,55.17
2019-04-06T23:37:08.357Z,55.40
2019-04-06T23:39:14.766Z,53.00
2019-04-06T23:41:20.458Z,55.77
2019-04-06T23:43:25.641Z,54.83
2019-04-06T23:45:31.097Z,52.73
2019-04-06T23:47:36.362Z,54.43
2019-04-06T23:49:43.411Z,55.80
2019-04-06T23:51:48.676Z,52.67
2019-04-06T23:53:53.708Z,55.70
2019-04-06T23:55:58.790Z,53.40
2019-04-06T23:58:04.225Z,55.10
